createdAt,value
2022-11-05T00:02:27.165Z,96191.28
2022-11-05T00:05:15.362Z,96182.78
2022-11-05T00:08:12.632Z,96173.28
2022-11-05T00:10:42.443Z,96170.19
2022-11-05T00:13:34.144Z,96166.19
2022-11-05T00:16:23.308Z,96170.31
2022-11-05T00:19:07.950Z,96176.56
2022-11-05T00:22:00.384Z,96187.44
2022-11-05T00:24:49.671Z,96188.00
2022-11-05T00:27:17.292Z,96195.97
2022-11-05T00:29:45.362Z,96189.38
2022-11-05T00:32:12.592Z,96196.28
2022-11-05T00:34:39.738Z,96199.97
2022-11-05T00:37:07.001Z,96202.59
2022-11-05T00:39:39.588Z,96201.44
2022-11-05T00:42:27.710Z,96188.22
2022-11-05T00:45:03.952Z,96185.88
2022-11-05T00:47:55.776Z,96197.88
2022-11-05T00:50:25.109Z,96227.19
2022-11-05T00:52:58.878Z,96232.03
2022-11-05T00:55:42.255Z,96226.16
2022-11-05T00:58:18.409Z,96245.25
2022-11-05T01:00:55.238Z,96248.47
2022-11-05T01:03:35.568Z,96232.47
2022-11-05T01:06:20.423Z,96220.56
2022-11-05T01:08:47.829Z,96211.25
2022-11-05T01:11:36.938Z,96203.81
2022-11-05T01:14:10.689Z,96198.38
2022-11-05T01:16:38.815Z,96195.41
2022-11-05T01:19:11.972Z,96178.69
2022-11-05T01:21:40.117Z,96166.56
2022-11-05T01:24:16.131Z,96168.31
2022-11-05T01:26:45.174Z,96175.59
2022-11-05T01:29:17.762Z,96188.97
2022-11-05T01:31:45.447Z,96193.81
2022-11-05T01:34:18.180Z,96197.94
2022-11-05T01:36:45.619Z,96216.38
2022-11-05T01:39:16.656Z,96208.41
2022-11-05T01:41:48.117Z,96204.41
2022-11-05T01:44:55.644Z,96189.56
2022-11-05T01:47:58.019Z,96182.75
2022-11-05T01:50:58.622Z,96176.34
2022-11-05T01:54:04.775Z,96171.94
2022-11-05T01:57:10.888Z,96160.09
2022-11-05T01:59:58.786Z,96163.41
2022-11-05T02:02:35.980Z,96170.19
2022-11-05T02:05:10.291Z,96175.13
2022-11-05T02:07:47.223Z,96183.34
2022-11-05T02:10:24.233Z,96182.03
2022-11-05T02:13:01.417Z,96187.13
2022-11-05T02:15:56.206Z,96191.81
2022-11-05T02:18:57.786Z,96197.19
2022-11-05T02:22:07.894Z,96210.38
2022-11-05T02:25:31.635Z,96214.34
2022-11-05T02:28:43.857Z,96211.81
2022-11-05T02:31:37.314Z,96214.50
2022-11-05T02:34:44.971Z,96210.38
2022-11-05T02:37:25.903Z,96209.78
2022-11-05T02:40:41.146Z,96221.94
2022-11-05T02:43:55.590Z,96216.66
2022-11-05T02:46:46.981Z,96213.88
2022-11-05T02:49:26.432Z,96200.06
2022-11-05T02:52:25.629Z,96199.78
2022-11-05T02:56:03.263Z,96202.16
2022-11-05T02:58:36.741Z,96194.38
2022-11-05T03:01:32.275Z,96181.31
2022-11-05T03:04:34.026Z,96166.81
2022-11-05T03:07:36.465Z,96148.75
2022-11-05T03:10:29.199Z,96148.44
2022-11-05T03:13:33.812Z,96140.16
2022-11-05T03:16:51.589Z,96131.88
2022-11-05T03:19:52.353Z,96116.94
2022-11-05T03:22:47.193Z,96108.97
2022-11-05T03:25:24.450Z,96113.09
2022-11-05T03:28:00.853Z,96128.59
2022-11-05T03:30:32.916Z,96143.22
2022-11-05T03:33:17.428Z,96151.13
2022-11-05T03:36:02.042Z,96174.69
2022-11-05T03:38:51.978Z,96156.56
2022-11-05T03:41:29.594Z,96153.16
2022-11-05T03:44:14.102Z,96144.38
2022-11-05T03:47:07.138Z,96139.50
2022-11-05T03:50:07.928Z,96142.56
2022-11-05T03:52:55.926Z,96146.38
2022-11-05T03:55:50.338Z,96152.78
2022-11-05T03:58:23.224Z,96153.56
2022-11-05T04:00:54.081Z,96157.97
2022-11-05T04:03:21.335Z,96158.50
2022-11-05T04:06:10.396Z,96159.47
2022-11-05T04:09:04.568Z,96151.19
2022-11-05T04:11:53.576Z,96150.38
2022-11-05T04:14:26.341Z,96146.34
2022-11-05T04:17:12.508Z,96152.19
2022-11-05T04:20:05.757Z,96160.16
2022-11-05T04:22:59.206Z,96150.41
2022-11-05T04:25:29.291Z,96148.75
2022-11-05T04:28:06.432Z,96139.69
2022-11-05T04:30:46.556Z,96140.84
2022-11-05T04:33:24.643Z,96145.69
2022-11-05T04:36:05.110Z,96153.31
2022-11-05T04:38:41.479Z,96162.91
2022-11-05T04:41:19.390Z,96163.38
2022-11-05T04:43:49.433Z,96168.53
2022-11-05T04:46:20.935Z,96161.88
2022-11-05T04:48:52.106Z,96162.78
2022-11-05T04:51:21.023Z,96169.03
2022-11-05T04:54:03.376Z,96184.50
2022-11-05T04:56:36.813Z,96190.53
2022-11-05T04:59:10.828Z,96192.94
2022-11-05T05:01:50.116Z,96188.53
2022-11-05T05:04:31.243Z,96199.59
2022-11-05T05:07:02.759Z,96192.78
2022-11-05T05:09:37.694Z,96201.19
2022-11-05T05:12:11.690Z,96200.03
2022-11-05T05:14:42.895Z,96207.38
2022-11-05T05:17:17.825Z,96196.69
2022-11-05T05:20:10.014Z,96206.13
2022-11-05T05:22:37.433Z,96193.94
2022-11-05T05:25:11.985Z,96197.03
2022-11-05T05:27:39.068Z,96190.16
2022-11-05T05:30:08.183Z,96195.97
2022-11-05T05:32:38.000Z,96193.44
2022-11-05T05:35:14.307Z,96199.66
2022-11-05T05:37:50.713Z,96204.75
2022-11-05T05:40:21.845Z,96207.50
2022-11-05T05:43:04.113Z,96206.03
2022-11-05T05:45:33.460Z,96208.19
2022-11-05T05:48:15.461Z,96220.28
2022-11-05T05:50:45.906Z,96220.53
2022-11-05T05:53:20.156Z,96227.34
2022-11-05T05:55:53.751Z,96234.28
2022-11-05T05:58:35.468Z,96245.09
2022-11-05T06:01:20.470Z,96254.31
2022-11-05T06:03:53.233Z,96250.59
2022-11-05T06:06:24.019Z,96254.03
2022-11-05T06:09:00.057Z,96255.59
2022-11-05T06:11:29.709Z,96260.06
2022-11-05T06:14:01.362Z,96256.03
2022-11-05T06:16:28.748Z,96264.81
2022-11-05T06:18:57.034Z,96256.25
2022-11-05T06:21:36.390Z,96265.22
2022-11-05T06:24:28.550Z,96271.25
2022-11-05T06:27:01.174Z,96273.41
2022-11-05T06:29:32.101Z,96276.53
2022-11-05T06:32:08.225Z,96271.91
2022-11-05T06:34:38.248Z,96286.50
2022-11-05T06:37:07.142Z,96289.81
2022-11-05T06:39:37.580Z,96295.72
2022-11-05T06:42:18.938Z,96297.31
2022-11-05T06:45:00.680Z,96303.72
2022-11-05T06:47:43.713Z,96300.34
2022-11-05T06:50:13.762Z,96315.94
2022-11-05T06:52:50.990Z,96322.19
2022-11-05T06:55:22.540Z,96318.66
2022-11-05T06:57:58.507Z,96318.47
2022-11-05T07:00:43.298Z,96308.41
2022-11-05T07:03:16.328Z,96319.34
2022-11-05T07:05:54.361Z,96317.22
2022-11-05T07:08:24.262Z,96322.72
2022-11-05T07:10:56.330Z,96321.41
2022-11-05T07:13:33.525Z,96333.19
2022-11-05T07:16:02.257Z,96332.56
2022-11-05T07:18:31.640Z,96335.41
2022-11-05T07:21:14.451Z,96335.47
2022-11-05T07:23:42.538Z,96340.97
2022-11-05T07:26:09.656Z,96345.16
2022-11-05T07:28:40.322Z,96347.38
2022-11-05T07:31:14.021Z,96337.28
2022-11-05T07:33:45.651Z,96337.16
2022-11-05T07:36:21.534Z,96336.28
2022-11-05T07:38:56.140Z,96341.53
2022-11-05T07:41:43.491Z,96326.34
2022-11-05T07:44:16.404Z,96339.03
2022-11-05T07:46:55.914Z,96340.84
2022-11-05T07:49:29.162Z,96343.91
2022-11-05T07:52:02.727Z,96331.56
2022-11-05T07:54:37.154Z,96323.25
2022-11-05T07:57:08.617Z,96331.72
2022-11-05T07:59:37.654Z,96337.75
2022-11-05T08:02:10.888Z,96341.66
2022-11-05T08:04:45.578Z,96328.47
2022-11-05T08:07:21.074Z,96330.19
2022-11-05T08:09:57.154Z,96336.41
2022-11-05T08:12:30.766Z,96322.75
2022-11-05T08:15:22.867Z,96320.78
2022-11-05T08:18:04.169Z,96319.31
2022-11-05T08:20:39.347Z,96329.63
2022-11-05T08:23:10.557Z,96322.53
2022-11-05T08:25:46.006Z,96321.06
2022-11-05T08:28:22.920Z,96322.59
2022-11-05T08:30:58.244Z,96330.78
2022-11-05T08:33:33.235Z,96324.69
2022-11-05T08:36:11.896Z,96325.97
2022-11-05T08:38:50.757Z,96320.63
2022-11-05T08:41:21.028Z,96313.06
2022-11-05T08:43:50.763Z,96330.78
2022-11-05T08:46:19.027Z,96325.72
2022-11-05T08:48:51.306Z,96321.75
2022-11-05T08:51:22.246Z,96328.59
2022-11-05T08:54:03.872Z,96337.06
2022-11-05T08:56:36.486Z,96337.06
2022-11-05T08:59:11.659Z,96332.19
2022-11-05T09:01:47.613Z,96336.44
2022-11-05T09:04:20.040Z,96340.13
2022-11-05T09:06:48.518Z,96347.28
2022-11-05T09:09:22.121Z,96337.66
2022-11-05T09:12:12.163Z,96341.91
2022-11-05T09:14:44.983Z,96339.31
2022-11-05T09:17:26.353Z,96345.56
2022-11-05T09:20:25.993Z,96348.53
2022-11-05T09:23:04.151Z,96354.41
2022-11-05T09:25:43.949Z,96352.19
2022-11-05T09:28:26.164Z,96366.13
2022-11-05T09:30:55.791Z,96367.91
2022-11-05T09:33:30.024Z,96379.13
2022-11-05T09:36:01.188Z,96372.91
2022-11-05T09:38:37.851Z,96384.56
2022-11-05T09:41:38.194Z,96381.06
2022-11-05T09:44:39.930Z,96383.09
2022-11-05T09:47:44.579Z,96393.88
2022-11-05T09:50:42.696Z,96395.13
2022-11-05T09:53:31.845Z,96399.09
2022-11-05T09:56:02.485Z,96403.16
2022-11-05T09:59:24.929Z,96408.88
2022-11-05T10:02:20.145Z,96406.53
2022-11-05T10:05:10.179Z,96407.47
2022-11-05T10:08:01.795Z,96402.47
2022-11-05T10:10:50.790Z,96402.88
2022-11-05T10:13:43.296Z,96403.97
2022-11-05T10:16:34.591Z,96417.38
2022-11-05T10:19:38.119Z,96409.50
2022-11-05T10:22:35.525Z,96410.25
2022-11-05T10:25:25.189Z,96407.78
2022-11-05T10:27:56.056Z,96417.75
2022-11-05T10:30:28.722Z,96404.28
2022-11-05T10:33:15.778Z,96415.75
2022-11-05T10:35:55.758Z,96416.94
2022-11-05T10:38:29.660Z,96420.59
2022-11-05T10:42:01.945Z,96425.63
2022-11-05T10:45:20.925Z,96424.06
2022-11-05T10:48:43.831Z,96414.75
2022-11-05T10:51:22.976Z,96411.81
2022-11-05T10:54:08.829Z,96413.66
2022-11-05T10:56:44.014Z,96415.66
2022-11-05T10:59:34.654Z,96402.06
2022-11-05T11:02:30.495Z,96424.59
2022-11-05T11:04:59.868Z,96408.59
2022-11-05T11:07:36.222Z,96407.16
2022-11-05T11:10:06.328Z,96421.03
2022-11-05T11:12:54.923Z,96410.53
2022-11-05T11:15:35.513Z,96409.38
2022-11-05T11:18:42.285Z,96414.31
2022-11-05T11:21:30.668Z,96405.81
2022-11-05T11:24:27.566Z,96396.44
2022-11-05T11:27:15.967Z,96394.00
2022-11-05T11:30:03.804Z,96401.88
2022-11-05T11:32:45.423Z,96411.25
2022-11-05T11:35:32.396Z,96407.78
2022-11-05T11:38:09.391Z,96411.16
2022-11-05T11:40:48.624Z,96416.69
2022-11-05T11:43:39.258Z,96404.50
2022-11-05T11:46:25.066Z,96416.75
2022-11-05T11:48:58.689Z,96418.94
2022-11-05T11:51:49.802Z,96413.47
2022-11-05T11:54:32.192Z,96401.28
2022-11-05T11:57:04.351Z,96404.16
2022-11-05T12:03:02.154Z,96404.59
2022-11-05T12:06:10.485Z,96399.34
2022-11-05T12:09:02.047Z,96408.38
2022-11-05T12:12:09.675Z,96408.03
2022-11-05T12:15:06.022Z,96418.97
2022-11-05T12:18:08.039Z,96406.16
2022-11-05T12:21:11.408Z,96408.31
2022-11-05T12:24:07.611Z,96407.63
2022-11-05T12:27:13.395Z,96397.44
2022-11-05T12:29:59.016Z,96402.31
2022-11-05T12:32:50.242Z,96411.19
2022-11-05T12:36:13.830Z,96407.25
2022-11-05T12:39:14.710Z,96407.97
2022-11-05T12:42:31.876Z,96410.19
2022-11-05T12:45:37.219Z,96402.25
2022-11-05T12:48:49.499Z,96416.84
2022-11-05T12:51:32.844Z,96406.88
2022-11-05T12:54:54.518Z,96419.28
2022-11-05T12:57:26.615Z,96409.50
2022-11-05T13:00:27.178Z,96417.75
2022-11-05T13:03:46.961Z,96407.88
2022-11-05T13:06:43.183Z,96413.59
2022-11-05T13:09:58.124Z,96408.22
2022-11-05T13:12:34.746Z,96409.94
2022-11-05T13:16:11.902Z,96410.03
2022-11-05T13:18:45.729Z,96422.22
2022-11-05T13:21:20.390Z,96420.84
2022-11-05T13:24:12.668Z,96436.09
2022-11-05T13:26:57.865Z,96431.03
2022-11-05T13:29:52.046Z,96440.53
2022-11-05T13:32:35.589Z,96416.53
2022-11-05T13:35:20.147Z,96436.47
2022-11-05T13:38:28.005Z,96424.84
2022-11-05T13:41:19.511Z,96415.81
2022-11-05T13:44:26.683Z,96422.75
2022-11-05T13:47:36.774Z,96421.31
2022-11-05T13:50:33.141Z,96436.03
2022-11-05T13:53:23.790Z,96433.53
2022-11-05T13:56:23.600Z,96429.16
2022-11-05T13:59:35.270Z,96439.13
2022-11-05T14:02:54.585Z,96432.66
2022-11-05T14:05:53.661Z,96436.03
2022-11-05T14:08:30.343Z,96453.97
2022-11-05T14:11:38.345Z,96435.72
2022-11-05T14:14:58.504Z,96454.38
2022-11-05T14:18:10.438Z,96453.97
2022-11-05T14:21:32.264Z,96462.81
2022-11-05T14:24:23.730Z,96461.22
2022-11-05T14:27:10.860Z,96470.84
2022-11-05T14:29:50.109Z,96472.84
2022-11-05T14:32:54.037Z,96466.31
2022-11-05T14:35:44.674Z,96478.72
2022-11-05T14:38:40.992Z,96488.97
2022-11-05T14:41:12.342Z,96496.75
2022-11-05T14:43:56.744Z,96485.31
2022-11-05T14:46:41.513Z,96506.03
2022-11-05T14:49:34.819Z,96502.00
2022-11-05T14:52:20.198Z,96506.97
2022-11-05T14:55:02.063Z,96501.16
2022-11-05T14:57:58.087Z,96522.50
2022-11-05T15:00:33.205Z,96519.09
2022-11-05T15:03:47.170Z,96541.53
2022-11-05T15:06:26.467Z,96551.13
2022-11-05T15:09:34.059Z,96543.22
2022-11-05T15:12:37.647Z,96552.50
2022-11-05T15:15:23.549Z,96547.47
2022-11-05T15:18:06.876Z,96566.97
2022-11-05T15:20:53.733Z,96576.78
2022-11-05T15:23:32.898Z,96574.31
2022-11-05T15:27:00.738Z,96603.69
2022-11-05T15:29:34.253Z,96602.75
2022-11-05T15:32:06.449Z,96615.88
2022-11-05T15:34:37.990Z,96614.25
2022-11-05T15:37:27.746Z,96619.41
2022-11-05T15:40:01.531Z,96619.25
2022-11-05T15:42:34.878Z,96607.97
2022-11-05T15:45:36.758Z,96607.88
2022-11-05T15:48:23.941Z,96599.66
2022-11-05T15:51:02.454Z,96610.38
2022-11-05T15:53:56.027Z,96614.38
2022-11-05T15:56:54.307Z,96610.28
2022-11-05T15:59:30.562Z,96606.59
2022-11-05T16:02:29.025Z,96609.72
2022-11-05T16:05:07.670Z,96629.41
2022-11-05T16:07:37.736Z,96623.41
2022-11-05T16:10:25.022Z,96624.88
2022-11-05T16:12:58.876Z,96632.59
2022-11-05T16:15:33.828Z,96619.91
2022-11-05T16:18:01.227Z,96614.94
2022-11-05T16:20:38.200Z,96610.19
2022-11-05T16:23:23.419Z,96621.47
2022-11-05T16:25:55.182Z,96612.75
2022-11-05T16:28:33.067Z,96620.34
2022-11-05T16:31:04.440Z,96634.38
2022-11-05T16:33:46.854Z,96638.25
2022-11-05T16:36:17.339Z,96642.97
2022-11-05T16:38:47.492Z,96648.00
2022-11-05T16:41:20.706Z,96647.81
2022-11-05T16:44:01.173Z,96653.22
2022-11-05T16:46:33.046Z,96647.09
2022-11-05T16:49:03.311Z,96620.75
2022-11-05T16:51:31.670Z,96646.75
2022-11-05T16:53:59.031Z,96650.06
2022-11-05T16:59:13.830Z,96652.94
2022-11-05T17:01:47.468Z,96670.59
2022-11-05T17:04:18.808Z,96659.13
2022-11-05T17:06:54.010Z,96672.91
2022-11-05T17:09:21.548Z,96682.91
2022-11-05T17:11:49.881Z,96677.16
2022-11-05T17:14:24.398Z,96688.19
2022-11-05T17:16:55.948Z,96680.91
2022-11-05T17:19:24.962Z,96686.66
2022-11-05T17:22:06.356Z,96685.81
2022-11-05T17:24:40.650Z,96688.88
2022-11-05T17:27:11.477Z,96682.22
2022-11-05T17:29:43.947Z,96692.13
2022-11-05T17:32:19.621Z,96678.16
2022-11-05T17:34:52.843Z,96690.31
2022-11-05T17:37:24.164Z,96693.13
2022-11-05T17:40:02.058Z,96688.34
2022-11-05T17:42:33.925Z,96703.06
2022-11-05T17:45:04.126Z,96685.34
2022-11-05T17:47:41.850Z,96709.38
2022-11-05T17:50:18.848Z,96711.59
2022-11-05T17:52:54.740Z,96711.34
2022-11-05T17:55:26.581Z,96720.09
2022-11-05T17:57:58.966Z,96728.50
2022-11-05T18:00:38.013Z,96729.91
2022-11-05T18:03:11.012Z,96740.97
2022-11-05T18:05:43.045Z,96726.09
2022-11-05T18:08:28.460Z,96728.00
2022-11-05T18:11:07.382Z,96743.66
2022-11-05T18:13:38.484Z,96729.22
2022-11-05T18:16:12.257Z,96744.69
2022-11-05T18:18:42.357Z,96745.19
2022-11-05T18:21:12.056Z,96735.41
2022-11-05T18:23:49.062Z,96739.94
2022-11-05T18:26:17.789Z,96738.13
2022-11-05T18:28:50.592Z,96733.34
2022-11-05T18:31:25.679Z,96737.28
2022-11-05T18:34:04.636Z,96744.38
2022-11-05T18:36:37.506Z,96752.28
2022-11-05T18:39:10.331Z,96748.88
2022-11-05T18:41:51.814Z,96740.56
2022-11-05T18:44:28.318Z,96727.66
2022-11-05T18:47:11.542Z,96740.59
2022-11-05T18:49:41.558Z,96745.75
2022-11-05T18:52:16.093Z,96749.88
2022-11-05T18:54:45.266Z,96743.19
2022-11-05T18:57:18.076Z,96740.81
2022-11-05T18:59:52.022Z,96750.94
2022-11-05T19:02:22.707Z,96759.53
2022-11-05T19:05:14.483Z,96760.47
2022-11-05T19:07:40.557Z,96767.56
2022-11-05T19:10:09.136Z,96763.75
2022-11-05T19:12:43.964Z,96771.41
2022-11-05T19:15:20.375Z,96769.50
2022-11-05T19:17:52.898Z,96770.84
2022-11-05T19:20:21.425Z,96765.25
2022-11-05T19:22:50.576Z,96763.50
2022-11-05T19:25:22.353Z,96768.41
2022-11-05T19:27:51.619Z,96779.06
2022-11-05T19:30:20.445Z,96770.31
2022-11-05T19:32:50.435Z,96768.13
2022-11-05T19:35:17.968Z,96780.13
2022-11-05T19:37:47.372Z,96799.50
2022-11-05T19:40:14.524Z,96791.03
2022-11-05T19:42:43.202Z,96794.63
2022-11-05T19:45:38.237Z,96799.81
2022-11-05T19:48:01.278Z,96812.63
2022-11-05T19:50:32.022Z,96812.88
2022-11-05T19:53:06.103Z,96831.72
2022-11-05T19:55:38.916Z,96821.19
2022-11-05T19:58:06.361Z,96821.66
2022-11-05T20:00:35.151Z,96829.56
2022-11-05T20:03:11.633Z,96818.06
2022-11-05T20:05:42.044Z,96831.44
2022-11-05T20:08:14.177Z,96827.25
2022-11-05T20:10:41.968Z,96823.78
2022-11-05T20:13:15.516Z,96836.63
2022-11-05T20:15:47.149Z,96846.22
2022-11-05T20:18:18.981Z,96837.47
2022-11-05T20:20:48.976Z,96834.00
2022-11-05T20:23:17.398Z,96837.16
2022-11-05T20:25:44.649Z,96847.47
2022-11-05T20:28:12.621Z,96844.31
2022-11-05T20:30:40.321Z,96846.63
2022-11-05T20:33:11.243Z,96858.97
2022-11-05T20:35:40.732Z,96850.44
2022-11-05T20:38:08.095Z,96871.84
2022-11-05T20:40:35.475Z,96875.69
2022-11-05T20:43:02.717Z,96866.66
2022-11-05T20:45:33.242Z,96879.81
2022-11-05T20:48:01.062Z,96863.09
2022-11-05T20:50:32.892Z,96878.94
2022-11-05T20:53:00.267Z,96879.16
2022-11-05T20:55:28.541Z,96887.97
2022-11-05T20:57:56.590Z,96905.94
2022-11-05T21:00:26.184Z,96901.53
2022-11-05T21:02:54.773Z,96891.78
2022-11-05T21:05:32.697Z,96903.28
2022-11-05T21:08:06.183Z,96906.41
2022-11-05T21:10:33.382Z,96897.78
2022-11-05T21:13:03.571Z,96907.53
2022-11-05T21:15:31.866Z,96903.97
2022-11-05T21:18:00.317Z,96916.91
2022-11-05T21:20:31.917Z,96917.34
2022-11-05T21:23:03.388Z,96912.56
2022-11-05T21:25:34.107Z,96916.97
2022-11-05T21:28:03.802Z,96911.59
2022-11-05T21:30:31.236Z,96912.78
2022-11-05T21:32:59.224Z,96905.19
2022-11-05T21:35:28.247Z,96909.72
2022-11-05T21:38:02.842Z,96907.53
2022-11-05T21:40:33.275Z,96902.63
2022-11-05T21:43:01.358Z,96915.63
2022-11-05T21:45:32.713Z,96915.09
2022-11-05T21:48:06.954Z,96918.09
2022-11-05T21:50:53.463Z,96919.06
2022-11-05T21:53:40.963Z,96907.53
2022-11-05T21:56:43.288Z,96908.84
2022-11-05T21:59:36.611Z,96908.34
2022-11-05T22:02:04.704Z,96918.16
2022-11-05T22:04:37.902Z,96923.72
2022-11-05T22:07:07.800Z,96920.19
2022-11-05T22:09:38.984Z,96913.81
2022-11-05T22:12:07.292Z,96914.75
2022-11-05T22:14:35.322Z,96914.16
2022-11-05T22:17:04.526Z,96914.25
2022-11-05T22:19:33.848Z,96922.91
2022-11-05T22:22:02.360Z,96924.06
2022-11-05T22:24:32.002Z,96921.66
2022-11-05T22:27:06.978Z,96925.75
2022-11-05T22:29:39.961Z,96912.97
2022-11-05T22:32:08.827Z,96926.16
2022-11-05T22:34:38.576Z,96928.53
2022-11-05T22:37:11.582Z,96939.88
2022-11-05T22:39:38.920Z,96925.06
2022-11-05T22:42:09.239Z,96928.97
2022-11-05T22:44:43.801Z,96938.78
2022-11-05T22:47:13.129Z,96937.06
2022-11-05T22:49:43.078Z,96937.41
2022-11-05T22:52:12.393Z,96936.84
2022-11-05T22:54:42.634Z,96932.91
2022-11-05T22:57:11.955Z,96920.72
2022-11-05T22:59:39.321Z,96928.91
2022-11-05T23:02:09.881Z,96925.59
2022-11-05T23:04:43.114Z,96937.72
2022-11-05T23:07:29.699Z,96932.53
2022-11-05T23:10:29.403Z,96932.16
2022-11-05T23:12:56.600Z,96927.81
2022-11-05T23:15:42.828Z,96920.81
2022-11-05T23:18:29.250Z,96918.00
2022-11-05T23:21:22.712Z,96925.16
2022-11-05T23:24:05.909Z,96920.41
2022-11-05T23:26:53.022Z,96920.81
2022-11-05T23:29:26.838Z,96916.38
2022-11-05T23:32:13.032Z,96911.03
2022-11-05T23:34:40.418Z,96911.25
2022-11-05T23:37:26.727Z,96905.88
2022-11-05T23:39:55.386Z,96902.84
2022-11-05T23:42:44.592Z,96908.84
2022-11-05T23:45:31.685Z,96907.09
2022-11-05T23:48:25.337Z,96908.19
2022-11-05T23:51:02.072Z,96902.72
2022-11-05T23:53:33.873Z,96911.69
2022-11-05T23:56:06.097Z,96901.78
2022-11-05T23:58:33.317Z,96910.50
